createdAt,value
2018-07-04T00:04:43.573Z,10.40
2018-07-04T00:07:37.019Z,10.40
2018-07-04T00:10:26.189Z,10.40
2018-07-04T00:13:15.282Z,10.40
2018-07-04T00:16:05.320Z,10.30
2018-07-04T00:18:54.010Z,10.30
2018-07-04T00:21:47.701Z,10.40
2018-07-04T00:24:39.419Z,10.50
2018-07-04T00:27:27.450Z,10.30
2018-07-04T00:30:18.231Z,10.20
2018-07-04T00:33:05.678Z,10.20
2018-07-04T00:38:37.914Z,10.20
2018-07-04T00:41:26.155Z,10.10
2018-07-04T00:44:15.448Z,10.00
2018-07-04T00:47:05.929Z,10.10
2018-07-04T00:49:58.111Z,10.10
2018-07-04T00:52:47.204Z,10.00
2018-07-04T00:55:35.597Z,10.00
2018-07-04T00:58:23.726Z,10.00
2018-07-04T01:01:10.588Z,10.00
2018-07-04T01:03:57.576Z,10.10
2018-07-04T01:06:44.839Z,10.20
2018-07-04T01:09:32.060Z,10.20
2018-07-04T01:12:19.893Z,10.10
2018-07-04T01:15:07.793Z,10.00
2018-07-04T01:17:55.453Z,9.90
2018-07-04T01:20:47.296Z,9.90
2018-07-04T01:23:35.466Z,9.80
2018-07-04T01:26:23.874Z,9.90
2018-07-04T01:29:11.591Z,9.80
2018-07-04T01:31:59.108Z,9.80
2018-07-04T01:34:47.045Z,9.70
2018-07-04T01:37:39.013Z,9.60
2018-07-04T01:40:27.373Z,9.60
2018-07-04T01:43:14.861Z,9.60
2018-07-04T01:46:02.741Z,9.60
2018-07-04T01:48:50.837Z,9.70
2018-07-04T01:51:37.744Z,9.80
2018-07-04T01:54:24.910Z,9.70
2018-07-04T01:57:16.395Z,9.60
2018-07-04T02:00:04.300Z,9.60
2018-07-04T02:02:54.180Z,9.60
2018-07-04T02:08:24.004Z,9.80
2018-07-04T02:11:16.316Z,9.80
2018-07-04T02:14:07.197Z,9.80
2018-07-04T02:19:54.622Z,9.70
2018-07-04T02:22:43.417Z,9.50
2018-07-04T02:28:30.778Z,9.40
2018-07-04T02:31:18.831Z,9.50
2018-07-04T02:34:07.742Z,9.50
2018-07-04T02:36:55.742Z,9.40
2018-07-04T02:39:43.135Z,9.50
2018-07-04T02:42:34.146Z,9.50
2018-07-04T02:45:26.600Z,9.60
2018-07-04T02:48:14.421Z,9.60
2018-07-04T02:51:02.215Z,9.60
2018-07-04T02:53:56.345Z,9.50
2018-07-04T02:56:44.654Z,9.40
2018-07-04T02:59:32.138Z,9.40
2018-07-04T03:02:20.125Z,9.40
2018-07-04T03:05:06.574Z,9.50
2018-07-04T03:07:53.233Z,9.50
2018-07-04T03:10:39.616Z,9.50
2018-07-04T03:13:25.848Z,9.50
2018-07-04T03:16:12.135Z,9.60
2018-07-04T03:18:58.393Z,9.70
2018-07-04T03:21:44.685Z,9.60
2018-07-04T03:24:30.841Z,9.70
2018-07-04T03:27:17.052Z,9.70
2018-07-04T03:30:03.461Z,9.80
2018-07-04T03:32:49.683Z,9.80
2018-07-04T03:35:36.029Z,9.90
2018-07-04T03:38:22.255Z,10.00
2018-07-04T03:41:08.569Z,10.00
2018-07-04T03:43:54.770Z,10.30
2018-07-04T03:46:41.082Z,10.50
2018-07-04T03:49:27.312Z,10.60
2018-07-04T03:52:13.522Z,10.60
2018-07-04T03:54:59.897Z,10.70
2018-07-04T03:57:46.164Z,10.80
2018-07-04T04:00:32.445Z,11.00
2018-07-04T04:03:18.866Z,11.20
2018-07-04T04:06:05.146Z,11.30
2018-07-04T04:08:51.386Z,11.40
2018-07-04T04:11:37.673Z,11.50
2018-07-04T04:14:23.953Z,11.60
2018-07-04T04:17:10.350Z,11.70
2018-07-04T04:19:56.666Z,11.80
2018-07-04T04:22:42.834Z,11.90
2018-07-04T04:25:29.142Z,12.10
2018-07-04T04:28:15.619Z,12.30
2018-07-04T04:31:01.882Z,12.40
2018-07-04T04:33:48.120Z,12.60
2018-07-04T04:36:34.348Z,12.80
2018-07-04T04:39:20.780Z,12.90
2018-07-04T04:42:07.087Z,13.00
2018-07-04T04:44:53.268Z,13.10
2018-07-04T04:47:39.524Z,13.20
2018-07-04T04:50:25.745Z,13.30
2018-07-04T04:53:12.041Z,13.30
2018-07-04T04:55:58.270Z,13.40
2018-07-04T04:58:44.630Z,13.50
2018-07-04T05:01:30.783Z,13.60
2018-07-04T05:04:17.066Z,13.80
2018-07-04T05:07:03.288Z,13.90
2018-07-04T05:09:49.609Z,14.20
2018-07-04T05:12:35.827Z,14.50
2018-07-04T05:15:22.128Z,14.80
2018-07-04T05:18:08.290Z,15.20
2018-07-04T05:20:54.790Z,15.80
2018-07-04T05:23:40.973Z,16.10
2018-07-04T05:26:27.121Z,16.30
2018-07-04T05:29:13.449Z,16.60
2018-07-04T05:31:59.633Z,16.90
2018-07-04T05:34:45.920Z,17.10
2018-07-04T05:37:32.105Z,17.40
2018-07-04T05:40:18.438Z,17.60
2018-07-04T05:43:04.650Z,17.80
2018-07-04T05:45:50.873Z,18.20
2018-07-04T05:48:37.125Z,18.60
2018-07-04T05:51:23.327Z,18.60
2018-07-04T05:54:09.899Z,18.60
2018-07-04T05:56:56.154Z,18.80
2018-07-04T05:59:42.369Z,18.90
2018-07-04T06:02:28.523Z,19.00
2018-07-04T06:05:14.809Z,19.30
2018-07-04T06:08:01.228Z,19.50
2018-07-04T06:10:47.485Z,19.60
2018-07-04T06:13:33.789Z,19.40
2018-07-04T06:16:20.018Z,19.30
2018-07-04T06:19:06.194Z,19.30
2018-07-04T06:21:52.499Z,19.40
2018-07-04T06:24:38.726Z,19.70
2018-07-04T06:27:25.047Z,19.80
2018-07-04T06:30:12.204Z,19.80
2018-07-04T06:32:58.666Z,19.90
2018-07-04T06:35:45.253Z,19.90
2018-07-04T06:38:19.197Z,20.20
2018-07-04T06:40:47.025Z,20.10
2018-07-04T06:43:14.853Z,20.00
2018-07-04T06:45:42.920Z,20.00
2018-07-04T06:48:10.788Z,20.30
2018-07-04T06:50:38.639Z,20.60
2018-07-04T06:53:06.481Z,20.80
2018-07-04T06:55:34.336Z,21.10
2018-07-04T06:58:02.157Z,21.30
2018-07-04T07:00:30.001Z,21.70
2018-07-04T07:03:10.049Z,22.10
2018-07-04T07:05:56.380Z,22.70
2018-07-04T07:08:42.571Z,23.30
2018-07-04T07:11:28.814Z,23.80
2018-07-04T07:14:15.101Z,24.30
2018-07-04T07:17:01.304Z,24.70
2018-07-04T07:19:47.607Z,25.00
2018-07-04T07:22:34.029Z,25.30
2018-07-04T07:25:20.349Z,25.50
2018-07-04T07:28:06.500Z,25.90
2018-07-04T07:30:52.733Z,26.40
2018-07-04T07:33:38.997Z,26.60
2018-07-04T07:36:25.257Z,27.00
2018-07-04T07:39:11.566Z,27.60
2018-07-04T07:41:57.823Z,28.60
2018-07-04T07:44:43.981Z,29.80
2018-07-04T07:47:30.302Z,30.10
2018-07-04T07:50:16.645Z,30.70
2018-07-04T07:53:02.824Z,30.80
2018-07-04T07:55:49.230Z,31.30
2018-07-04T07:58:35.545Z,31.60
2018-07-04T08:01:21.904Z,31.40
2018-07-04T08:04:08.093Z,31.10
2018-07-04T08:06:54.378Z,30.60
2018-07-04T08:09:40.710Z,29.90
2018-07-04T08:12:26.919Z,29.40
2018-07-04T08:15:13.075Z,28.80
2018-07-04T08:17:59.349Z,28.40
2018-07-04T08:20:45.664Z,28.10
2018-07-04T08:23:32.028Z,27.70
2018-07-04T08:26:18.266Z,27.50
2018-07-04T08:29:04.563Z,27.50
2018-07-04T08:31:50.828Z,27.50
2018-07-04T08:34:37.044Z,27.50
2018-07-04T08:37:23.261Z,27.20
2018-07-04T08:40:09.595Z,27.00
2018-07-04T08:42:55.777Z,27.20
2018-07-04T08:45:42.050Z,27.00
2018-07-04T08:48:28.257Z,27.10
2018-07-04T08:51:14.537Z,26.90
2018-07-04T08:54:00.862Z,26.60
2018-07-04T08:56:47.079Z,26.40
2018-07-04T08:59:33.245Z,26.50
2018-07-04T09:02:19.578Z,26.80
2018-07-04T09:05:05.817Z,27.10
2018-07-04T09:07:52.177Z,27.50
2018-07-04T09:10:38.343Z,27.70
2018-07-04T09:13:24.581Z,28.00
2018-07-04T09:16:10.897Z,27.90
2018-07-04T09:18:57.213Z,28.00
2018-07-04T09:21:43.499Z,28.50
2018-07-04T09:24:29.773Z,29.10
2018-07-04T09:27:15.954Z,28.90
2018-07-04T09:30:02.213Z,28.60
2018-07-04T09:32:48.498Z,28.60
2018-07-04T09:35:34.630Z,28.40
2018-07-04T09:38:21.025Z,28.90
2018-07-04T09:41:07.447Z,29.90
2018-07-04T09:43:53.756Z,29.00
2018-07-04T09:46:40.133Z,28.70
2018-07-04T09:49:26.609Z,28.80
2018-07-04T09:52:12.771Z,28.70
2018-07-04T09:54:58.912Z,28.30
2018-07-04T09:57:45.217Z,28.10
2018-07-04T10:00:31.575Z,28.30
2018-07-04T10:03:17.910Z,28.60
2018-07-04T10:06:04.262Z,28.60
2018-07-04T10:08:50.648Z,29.00
2018-07-04T10:11:36.965Z,29.10
2018-07-04T10:14:23.132Z,28.70
2018-07-04T10:17:09.366Z,28.60
2018-07-04T10:19:55.606Z,28.90
2018-07-04T10:22:41.763Z,29.10
2018-07-04T10:25:27.992Z,29.20
2018-07-04T10:28:14.292Z,29.20
2018-07-04T10:31:00.593Z,28.90
2018-07-04T10:33:46.905Z,28.80
2018-07-04T10:36:33.284Z,29.00
2018-07-04T10:39:19.577Z,29.50
2018-07-04T10:42:05.906Z,29.80
2018-07-04T10:44:52.093Z,29.90
2018-07-04T10:47:38.410Z,29.70
2018-07-04T10:50:24.711Z,29.30
2018-07-04T10:53:10.936Z,28.70
2018-07-04T10:55:57.197Z,28.40
2018-07-04T10:58:43.600Z,28.40
2018-07-04T11:01:29.989Z,28.40
2018-07-04T11:04:16.247Z,28.40
2018-07-04T11:07:02.546Z,28.40
2018-07-04T11:09:48.860Z,28.60
2018-07-04T11:12:35.159Z,28.60
2018-07-04T11:15:21.551Z,28.70
2018-07-04T11:18:07.839Z,28.70
2018-07-04T11:20:55.041Z,28.90
2018-07-04T11:23:41.346Z,29.00
2018-07-04T11:26:27.602Z,28.90
2018-07-04T11:29:14.042Z,28.60
2018-07-04T11:32:00.430Z,28.40
2018-07-04T11:34:46.751Z,28.30
2018-07-04T11:37:33.114Z,28.30
2018-07-04T11:40:19.364Z,28.30
2018-07-04T11:43:05.615Z,28.10
2018-07-04T11:45:51.971Z,28.00
2018-07-04T11:48:19.808Z,28.10
2018-07-04T11:50:47.629Z,28.30
2018-07-04T11:53:15.520Z,28.60
2018-07-04T11:55:43.330Z,28.60
2018-07-04T11:58:11.257Z,29.10
2018-07-04T12:00:39.080Z,29.50
2018-07-04T12:03:14.657Z,29.90
2018-07-04T12:05:55.065Z,30.00
2018-07-04T12:08:29.165Z,30.10
2018-07-04T12:10:57.559Z,30.10
2018-07-04T12:13:26.533Z,30.20
2018-07-04T12:15:54.394Z,30.20
2018-07-04T12:18:22.228Z,30.20
2018-07-04T12:20:50.076Z,30.50
2018-07-04T12:23:17.909Z,30.40
2018-07-04T12:25:45.732Z,30.20
2018-07-04T12:28:13.568Z,30.10
2018-07-04T12:30:41.405Z,30.20
2018-07-04T12:33:09.261Z,29.90
2018-07-04T12:35:37.093Z,29.80
2018-07-04T12:38:04.939Z,29.50
2018-07-04T12:40:32.803Z,29.40
2018-07-04T12:43:00.841Z,29.40
2018-07-04T12:45:28.664Z,29.70
2018-07-04T12:47:56.537Z,30.20
2018-07-04T12:50:27.646Z,29.70
2018-07-04T12:52:55.595Z,30.30
2018-07-04T12:55:40.056Z,30.80
2018-07-04T12:58:26.365Z,30.60
2018-07-04T13:01:12.870Z,30.40
2018-07-04T13:03:59.265Z,29.90
2018-07-04T13:06:45.462Z,30.00
2018-07-04T13:09:31.762Z,29.90
2018-07-04T13:12:18.076Z,30.00
2018-07-04T13:15:04.318Z,29.80
2018-07-04T13:17:50.473Z,29.80
2018-07-04T13:20:36.757Z,29.60
2018-07-04T13:23:22.950Z,29.50
2018-07-04T13:26:09.274Z,29.60
2018-07-04T13:28:55.689Z,29.50
2018-07-04T13:31:42.119Z,29.40
2018-07-04T13:34:28.369Z,29.50
2018-07-04T13:37:14.803Z,29.90
2018-07-04T13:40:01.011Z,30.40
2018-07-04T13:42:48.298Z,30.50
2018-07-04T13:45:34.555Z,30.60
2018-07-04T13:48:20.888Z,30.30
2018-07-04T13:51:07.302Z,30.60
2018-07-04T13:53:53.697Z,30.90
2018-07-04T13:56:39.974Z,31.00
2018-07-04T13:59:26.153Z,30.90
2018-07-04T14:02:12.330Z,31.20
2018-07-04T14:04:58.733Z,31.30
2018-07-04T14:07:45.104Z,30.80
2018-07-04T14:10:31.453Z,30.30
2018-07-04T14:13:18.720Z,29.40
2018-07-04T14:16:05.031Z,29.00
2018-07-04T14:18:51.407Z,28.80
2018-07-04T14:21:37.691Z,28.70
2018-07-04T14:24:23.904Z,28.50
2018-07-04T14:27:10.333Z,28.30
2018-07-04T14:29:56.755Z,28.10
2018-07-04T14:32:43.087Z,28.10
2018-07-04T14:35:29.319Z,28.20
2018-07-04T14:38:15.470Z,28.20
2018-07-04T14:41:01.759Z,28.30
2018-07-04T14:43:48.029Z,28.30
2018-07-04T14:46:34.321Z,28.20
2018-07-04T14:49:20.927Z,28.00
2018-07-04T14:52:07.542Z,28.10
2018-07-04T14:54:54.066Z,27.90
2018-07-04T14:57:40.329Z,27.90
2018-07-04T15:00:26.610Z,27.60
2018-07-04T15:03:12.856Z,27.80
2018-07-04T15:05:59.017Z,27.80
2018-07-04T15:08:45.404Z,27.60
2018-07-04T15:11:31.625Z,27.50
2018-07-04T15:14:17.881Z,27.30
2018-07-04T15:17:04.227Z,27.10
2018-07-04T15:19:50.401Z,26.90
2018-07-04T15:22:36.839Z,26.40
2018-07-04T15:25:23.128Z,25.90
2018-07-04T15:28:09.412Z,25.40
2018-07-04T15:30:55.572Z,24.90
2018-07-04T15:33:41.916Z,24.40
2018-07-04T15:36:28.324Z,23.90
2018-07-04T15:39:14.620Z,23.70
2018-07-04T15:42:00.953Z,23.40
2018-07-04T15:44:47.220Z,23.20
2018-07-04T15:47:33.457Z,22.40
2018-07-04T15:50:19.621Z,20.70
2018-07-04T15:53:05.901Z,19.70
2018-07-04T15:55:52.274Z,19.00
2018-07-04T15:58:38.564Z,18.50
2018-07-04T16:01:24.834Z,18.20
2018-07-04T16:04:11.138Z,17.90
2018-07-04T16:06:57.301Z,17.70
2018-07-04T16:09:43.720Z,17.60
2018-07-04T16:15:46.729Z,17.40
2018-07-04T16:18:32.919Z,17.50
2018-07-04T16:21:19.261Z,17.90
2018-07-04T16:26:45.709Z,18.60
2018-07-04T16:29:31.873Z,18.80
2018-07-04T16:32:19.160Z,19.10
2018-07-04T16:35:05.480Z,19.30
2018-07-04T16:37:51.860Z,19.40
2018-07-04T16:40:38.162Z,19.50
2018-07-04T16:43:24.591Z,19.50
2018-07-04T16:46:10.713Z,19.50
2018-07-04T16:48:57.033Z,19.50
2018-07-04T16:51:43.326Z,19.50
2018-07-04T16:54:29.595Z,19.40
2018-07-04T16:57:15.815Z,19.30
2018-07-04T17:00:02.031Z,19.10
2018-07-04T17:02:48.210Z,19.10
2018-07-04T17:05:34.391Z,19.00
2018-07-04T17:08:20.589Z,18.90
2018-07-04T17:11:07.035Z,18.90
2018-07-04T17:13:53.425Z,19.20
2018-07-04T17:16:39.726Z,19.30
2018-07-04T17:19:25.906Z,19.60
2018-07-04T17:22:12.200Z,20.30
2018-07-04T17:24:58.479Z,21.10
2018-07-04T17:27:44.858Z,22.10
2018-07-04T17:30:31.148Z,22.90
2018-07-04T17:33:17.505Z,23.70
2018-07-04T17:36:03.754Z,23.90
2018-07-04T17:38:50.007Z,24.60
2018-07-04T17:41:36.253Z,25.20
2018-07-04T17:44:22.458Z,25.90
2018-07-04T17:47:08.618Z,26.00
2018-07-04T17:49:54.838Z,26.50
2018-07-04T17:52:41.145Z,26.30
2018-07-04T17:55:27.473Z,26.20
2018-07-04T17:58:13.833Z,25.70
2018-07-04T18:01:00.012Z,25.60
2018-07-04T18:03:46.397Z,25.10
2018-07-04T18:06:32.629Z,25.10
2018-07-04T18:09:18.952Z,25.00
2018-07-04T18:12:05.103Z,24.90
2018-07-04T18:14:51.333Z,24.60
2018-07-04T18:17:37.616Z,23.90
2018-07-04T18:20:23.782Z,23.40
2018-07-04T18:23:10.062Z,22.90
2018-07-04T18:25:56.315Z,22.60
2018-07-04T18:28:42.755Z,22.60
2018-07-04T18:31:29.133Z,22.60
2018-07-04T18:34:15.446Z,22.40
2018-07-04T18:37:01.750Z,22.20
2018-07-04T18:39:48.026Z,22.20
2018-07-04T18:42:34.463Z,21.80
2018-07-04T18:45:20.687Z,21.40
2018-07-04T18:48:07.014Z,21.00
2018-07-04T18:50:53.347Z,20.50
2018-07-04T18:53:39.721Z,19.90
2018-07-04T18:56:25.971Z,19.60
2018-07-04T18:59:12.149Z,19.20
2018-07-04T19:01:58.356Z,18.80
2018-07-04T19:04:44.509Z,18.50
2018-07-04T19:07:30.887Z,18.30
2018-07-04T19:10:17.088Z,18.10
2018-07-04T19:13:03.267Z,17.90
2018-07-04T19:15:49.617Z,17.70
2018-07-04T19:18:36.178Z,17.70
2018-07-04T19:21:22.380Z,17.50
2018-07-04T19:24:08.547Z,17.30
2018-07-04T19:26:54.788Z,17.20
2018-07-04T19:29:41.017Z,17.20
2018-07-04T19:32:27.323Z,17.20
2018-07-04T19:35:13.498Z,17.10
2018-07-04T19:37:59.681Z,17.00
2018-07-04T19:40:45.888Z,16.90
2018-07-04T19:43:32.213Z,16.80
2018-07-04T19:46:18.405Z,16.80
2018-07-04T19:49:04.591Z,16.70
2018-07-04T19:51:50.999Z,16.70
2018-07-04T19:54:37.187Z,16.50
2018-07-04T19:57:23.479Z,16.40
2018-07-04T20:00:09.793Z,16.40
2018-07-04T20:02:56.180Z,16.40
2018-07-04T20:05:42.685Z,16.40
2018-07-04T20:08:28.896Z,16.20
2018-07-04T20:11:15.063Z,16.10
2018-07-04T20:14:01.392Z,16.10
2018-07-04T20:16:47.569Z,16.00
2018-07-04T20:19:33.847Z,15.90
2018-07-04T20:22:20.004Z,15.80
2018-07-04T20:25:06.185Z,15.80
2018-07-04T20:27:52.382Z,15.70
2018-07-04T20:30:38.530Z,15.70
2018-07-04T20:33:24.854Z,15.70
2018-07-04T20:36:11.053Z,15.70
2018-07-04T20:38:57.337Z,15.60
2018-07-04T20:41:43.532Z,15.50
2018-07-04T20:44:29.722Z,15.40
2018-07-04T20:47:16.026Z,15.40
2018-07-04T20:50:02.362Z,15.50
2018-07-04T20:52:48.573Z,15.50
2018-07-04T20:55:34.849Z,15.30
2018-07-04T20:58:21.110Z,15.30
2018-07-04T21:01:07.429Z,15.30
2018-07-04T21:03:53.741Z,15.20
2018-07-04T21:06:39.918Z,15.20
2018-07-04T21:09:26.171Z,15.00
2018-07-04T21:12:12.417Z,15.00
2018-07-04T21:14:58.583Z,15.00
2018-07-04T21:17:44.768Z,15.10
2018-07-04T21:20:31.056Z,15.00
2018-07-04T21:23:17.226Z,15.00
2018-07-04T21:26:03.473Z,14.90
2018-07-04T21:28:49.856Z,14.90
2018-07-04T21:31:36.173Z,14.90
2018-07-04T21:34:22.470Z,14.70
2018-07-04T21:37:09.253Z,14.70
2018-07-04T21:39:55.600Z,14.60
2018-07-04T21:42:41.846Z,14.50
2018-07-04T21:45:28.151Z,14.50
2018-07-04T21:48:14.621Z,14.40
2018-07-04T21:51:00.893Z,14.40
2018-07-04T21:53:47.373Z,14.40
2018-07-04T21:59:13.865Z,14.40
2018-07-04T22:02:00.119Z,14.50
2018-07-04T22:04:46.397Z,14.40
2018-07-04T22:07:32.681Z,14.30
2018-07-04T22:10:18.989Z,14.30
2018-07-04T22:13:05.481Z,14.20
2018-07-04T22:15:51.765Z,14.20
2018-07-04T22:18:38.046Z,14.20
2018-07-04T22:21:24.438Z,14.30
2018-07-04T22:24:10.846Z,14.30
2018-07-04T22:26:57.029Z,14.20
2018-07-04T22:29:43.229Z,14.20
2018-07-04T22:32:29.601Z,14.10
2018-07-04T22:35:15.885Z,14.10
2018-07-04T22:38:02.073Z,14.20
2018-07-04T22:40:48.381Z,14.20
2018-07-04T22:43:34.680Z,14.10
2018-07-04T22:46:20.881Z,14.10
2018-07-04T22:49:07.341Z,14.10
2018-07-04T22:51:53.563Z,14.20
2018-07-04T22:54:39.831Z,14.10
2018-07-04T22:57:26.088Z,14.00
2018-07-04T23:00:12.246Z,14.00
2018-07-04T23:02:58.519Z,14.00
2018-07-04T23:05:44.692Z,14.00
2018-07-04T23:08:31.033Z,14.00
2018-07-04T23:11:17.297Z,14.00
2018-07-04T23:14:03.769Z,13.90
2018-07-04T23:16:50.007Z,13.70
2018-07-04T23:19:36.322Z,13.80
2018-07-04T23:22:22.736Z,13.70
2018-07-04T23:25:08.956Z,13.60
2018-07-04T23:27:55.185Z,13.50
2018-07-04T23:30:41.457Z,13.50
2018-07-04T23:33:27.751Z,13.50
2018-07-04T23:36:13.925Z,13.60
2018-07-04T23:39:00.161Z,13.60
2018-07-04T23:41:46.474Z,13.70
2018-07-04T23:44:32.669Z,13.70
2018-07-04T23:47:18.828Z,13.70
2018-07-04T23:50:04.996Z,13.80
2018-07-04T23:52:51.273Z,13.80
2018-07-04T23:55:37.964Z,13.80
2018-07-04T23:58:24.143Z,13.70
